createdAt,value
2022-08-27T00:00:47.239Z,17.98
2022-08-27T00:03:14.119Z,18.01
2022-08-27T00:05:41.321Z,18.02
2022-08-27T00:08:09.769Z,17.96
2022-08-27T00:10:36.522Z,18.01
2022-08-27T00:13:03.181Z,18.11
2022-08-27T00:15:30.074Z,17.98
2022-08-27T00:17:56.935Z,17.86
2022-08-27T00:20:26.017Z,17.86
2022-08-27T00:22:53.445Z,17.89
2022-08-27T00:25:20.958Z,17.92
2022-08-27T00:27:47.668Z,17.94
2022-08-27T00:30:16.448Z,17.96
2022-08-27T00:32:43.438Z,17.92
2022-08-27T00:35:11.633Z,17.88
2022-08-27T00:37:38.461Z,17.94
2022-08-27T00:40:07.915Z,17.82
2022-08-27T00:42:34.596Z,17.78
2022-08-27T00:45:01.377Z,17.72
2022-08-27T00:47:30.652Z,17.70
2022-08-27T00:50:18.862Z,17.75
2022-08-27T00:52:53.068Z,17.76
2022-08-27T00:55:24.844Z,17.86
2022-08-27T00:58:00.297Z,17.84
2022-08-27T01:00:29.848Z,17.87
2022-08-27T01:02:56.491Z,17.87
2022-08-27T01:05:26.438Z,17.84
2022-08-27T01:07:56.575Z,17.71
2022-08-27T01:10:25.353Z,17.67
2022-08-27T01:12:54.169Z,17.54
2022-08-27T01:15:22.366Z,17.52
2022-08-27T01:17:49.417Z,17.50
2022-08-27T01:20:23.182Z,17.56
2022-08-27T01:23:04.137Z,17.54
2022-08-27T01:25:31.111Z,17.49
2022-08-27T01:28:00.566Z,17.46
2022-08-27T01:30:27.639Z,17.51
2022-08-27T01:32:54.722Z,17.49
2022-08-27T01:35:21.941Z,17.46
2022-08-27T01:37:50.489Z,17.45
2022-08-27T01:40:20.289Z,17.43
2022-08-27T01:42:49.597Z,17.38
2022-08-27T01:45:24.581Z,17.36
2022-08-27T01:47:51.688Z,17.34
2022-08-27T01:50:23.338Z,17.46
2022-08-27T01:52:51.342Z,17.48
2022-08-27T01:55:20.608Z,17.51
2022-08-27T01:57:48.388Z,17.41
2022-08-27T02:00:25.125Z,17.41
2022-08-27T02:02:52.142Z,17.38
2022-08-27T02:05:19.227Z,17.32
2022-08-27T02:07:46.737Z,17.38
2022-08-27T02:10:19.481Z,17.33
2022-08-27T02:12:46.658Z,17.36
2022-08-27T02:15:13.990Z,17.34
2022-08-27T02:17:44.015Z,17.34
2022-08-27T02:20:11.133Z,17.30
2022-08-27T02:22:38.614Z,17.29
2022-08-27T02:25:07.094Z,17.24
2022-08-27T02:27:37.063Z,17.32
2022-08-27T02:30:04.624Z,17.30
2022-08-27T02:32:32.028Z,17.23
2022-08-27T02:34:59.267Z,17.24
2022-08-27T02:37:25.961Z,17.15
2022-08-27T02:39:54.621Z,17.08
2022-08-27T02:42:21.363Z,17.14
2022-08-27T02:44:48.395Z,17.13
2022-08-27T02:47:16.693Z,17.20
2022-08-27T02:49:44.391Z,17.14
2022-08-27T02:52:11.432Z,17.18
2022-08-27T02:54:38.204Z,17.07
2022-08-27T02:57:05.862Z,17.06
2022-08-27T02:59:32.510Z,17.06
2022-08-27T03:01:59.234Z,17.08
2022-08-27T03:04:27.911Z,17.11
2022-08-27T03:06:55.426Z,17.00
2022-08-27T03:09:22.110Z,17.14
2022-08-27T03:11:50.998Z,17.13
2022-08-27T03:14:17.599Z,17.03
2022-08-27T03:16:48.418Z,16.89
2022-08-27T03:19:19.804Z,16.95
2022-08-27T03:21:54.497Z,16.96
2022-08-27T03:24:21.729Z,16.98
2022-08-27T03:26:53.897Z,17.07
2022-08-27T03:29:20.990Z,17.03
2022-08-27T03:31:47.758Z,17.11
2022-08-27T03:34:19.773Z,17.01
2022-08-27T03:36:48.744Z,16.96
2022-08-27T03:39:15.416Z,16.93
2022-08-27T03:41:54.982Z,16.97
2022-08-27T03:44:23.854Z,16.96
2022-08-27T03:46:51.957Z,16.99
2022-08-27T03:49:21.382Z,16.96
2022-08-27T03:51:49.967Z,17.09
2022-08-27T03:54:16.767Z,17.03
2022-08-27T03:56:43.450Z,16.95
2022-08-27T03:59:10.155Z,16.90
2022-08-27T04:01:39.159Z,16.90
2022-08-27T04:04:06.055Z,16.97
2022-08-27T04:06:35.127Z,17.00
2022-08-27T04:09:02.321Z,16.97
2022-08-27T04:11:29.429Z,16.87
2022-08-27T04:13:56.452Z,16.71
2022-08-27T04:16:23.106Z,16.67
2022-08-27T04:18:49.856Z,16.67
2022-08-27T04:21:16.557Z,16.81
2022-08-27T04:23:43.296Z,16.69
2022-08-27T04:26:11.154Z,16.70
2022-08-27T04:28:39.296Z,16.62
2022-08-27T04:31:16.649Z,16.66
2022-08-27T04:33:50.652Z,16.66
2022-08-27T04:36:18.185Z,16.65
2022-08-27T04:38:44.902Z,16.70
2022-08-27T04:41:21.223Z,16.75
2022-08-27T04:43:58.929Z,16.69
2022-08-27T04:46:28.673Z,16.66
2022-08-27T04:48:57.394Z,16.62
2022-08-27T04:51:24.950Z,16.68
2022-08-27T04:53:51.848Z,16.71
2022-08-27T04:56:21.258Z,16.67
2022-08-27T04:58:48.475Z,16.75
2022-08-27T05:01:21.889Z,16.68
2022-08-27T05:03:48.921Z,16.61
2022-08-27T05:06:16.074Z,16.69
2022-08-27T05:08:42.791Z,16.60
2022-08-27T05:11:12.345Z,16.59
2022-08-27T05:13:39.815Z,16.57
2022-08-27T05:16:08.814Z,16.67
2022-08-27T05:18:42.367Z,16.69
2022-08-27T05:21:27.236Z,16.60
2022-08-27T05:23:57.332Z,16.64
2022-08-27T05:26:24.221Z,16.66
2022-08-27T05:28:51.401Z,16.62
2022-08-27T05:31:19.575Z,16.72
2022-08-27T05:33:46.946Z,16.75
2022-08-27T05:36:22.674Z,16.81
2022-08-27T05:38:50.332Z,16.79
2022-08-27T05:41:19.799Z,16.82
2022-08-27T05:43:50.191Z,16.89
2022-08-27T05:46:20.240Z,16.93
2022-08-27T05:48:48.059Z,16.89
2022-08-27T05:51:25.184Z,16.89
2022-08-27T05:53:56.446Z,16.90
2022-08-27T05:56:25.006Z,16.98
2022-08-27T05:59:10.198Z,16.91
2022-08-27T06:01:44.924Z,16.96
2022-08-27T06:04:11.891Z,17.00
2022-08-27T06:06:45.361Z,17.21
2022-08-27T06:09:14.537Z,17.13
2022-08-27T06:11:41.510Z,17.26
2022-08-27T06:14:11.438Z,17.11
2022-08-27T06:16:38.489Z,17.06
2022-08-27T06:19:06.719Z,17.13
2022-08-27T06:21:33.514Z,17.04
2022-08-27T06:24:00.443Z,16.84
2022-08-27T06:26:27.986Z,17.11
2022-08-27T06:29:03.508Z,17.19
2022-08-27T06:31:35.121Z,17.11
2022-08-27T06:34:07.474Z,17.26
2022-08-27T06:36:38.150Z,17.21
2022-08-27T06:39:13.276Z,17.10
2022-08-27T06:41:42.711Z,17.01
2022-08-27T06:44:22.247Z,17.01
2022-08-27T06:46:49.345Z,17.01
2022-08-27T06:49:16.092Z,17.03
2022-08-27T06:51:45.731Z,17.11
2022-08-27T06:54:29.364Z,16.99
2022-08-27T06:57:01.882Z,16.98
2022-08-27T06:59:28.504Z,16.95
2022-08-27T07:01:55.245Z,17.03
2022-08-27T07:04:30.741Z,17.09
2022-08-27T07:07:00.665Z,16.88
2022-08-27T07:09:27.330Z,16.89
2022-08-27T07:11:54.775Z,16.86
2022-08-27T07:14:21.953Z,16.83
2022-08-27T07:16:49.479Z,16.91
2022-08-27T07:19:19.214Z,16.90
2022-08-27T07:21:50.639Z,16.95
2022-08-27T07:24:17.687Z,16.89
2022-08-27T07:26:44.648Z,16.94
2022-08-27T07:29:15.226Z,16.83
2022-08-27T07:31:42.225Z,16.85
2022-08-27T07:34:08.918Z,16.86
2022-08-27T07:36:36.034Z,16.94
2022-08-27T07:39:02.777Z,17.00
2022-08-27T07:41:31.810Z,16.96
2022-08-27T07:44:20.932Z,17.11
2022-08-27T07:46:54.516Z,17.07
2022-08-27T07:49:22.238Z,17.24
2022-08-27T07:51:49.651Z,17.27
2022-08-27T07:54:16.879Z,17.51
2022-08-27T07:56:44.285Z,17.43
2022-08-27T07:59:24.223Z,17.39
2022-08-27T08:01:51.676Z,17.37
2022-08-27T08:04:20.451Z,17.61
2022-08-27T08:06:47.572Z,17.85
2022-08-27T08:09:14.623Z,17.89
2022-08-27T08:11:41.329Z,17.56
2022-08-27T08:14:07.967Z,17.76
2022-08-27T08:16:34.739Z,17.56
2022-08-27T08:19:02.061Z,17.56
2022-08-27T08:21:28.821Z,17.52
2022-08-27T08:23:55.576Z,17.70
2022-08-27T08:26:23.145Z,17.83
2022-08-27T08:28:49.781Z,17.68
2022-08-27T08:31:16.571Z,17.86
2022-08-27T08:33:43.356Z,18.13
2022-08-27T08:36:12.895Z,18.03
2022-08-27T08:38:40.416Z,18.11
2022-08-27T08:41:26.486Z,17.80
2022-08-27T08:43:53.832Z,17.95
2022-08-27T08:46:37.841Z,17.68
2022-08-27T08:49:23.654Z,17.94
2022-08-27T08:51:52.014Z,18.01
2022-08-27T08:54:21.166Z,18.50
2022-08-27T08:57:02.051Z,18.80
2022-08-27T08:59:34.709Z,18.54
2022-08-27T09:02:01.418Z,18.36
2022-08-27T09:04:30.618Z,18.78
2022-08-27T09:07:08.976Z,18.70
2022-08-27T09:10:12.020Z,18.77
2022-08-27T09:12:52.453Z,18.37
2022-08-27T09:15:26.133Z,18.56
2022-08-27T09:17:54.899Z,18.36
2022-08-27T09:20:27.422Z,18.08
2022-08-27T09:23:31.310Z,18.27
2022-08-27T09:26:00.922Z,18.16
2022-08-27T09:28:59.822Z,18.06
2022-08-27T09:32:01.847Z,18.18
2022-08-27T09:37:51.257Z,17.95
2022-08-27T09:40:32.303Z,18.19
2022-08-27T09:43:11.005Z,18.05
2022-08-27T09:45:57.624Z,18.11
2022-08-27T09:48:38.171Z,18.04
2022-08-27T09:51:21.719Z,18.14
2022-08-27T09:53:55.900Z,18.26
2022-08-27T09:56:43.615Z,18.34
2022-08-27T09:59:13.097Z,18.41
2022-08-27T10:02:18.372Z,17.98
2022-08-27T10:04:51.972Z,18.04
2022-08-27T10:07:33.324Z,18.31
2022-08-27T10:10:20.326Z,18.31
2022-08-27T10:12:51.857Z,18.65
2022-08-27T10:15:18.611Z,18.62
2022-08-27T10:18:07.851Z,18.80
2022-08-27T10:21:18.545Z,19.07
2022-08-27T10:24:02.261Z,19.24
2022-08-27T10:26:55.665Z,19.12
2022-08-27T10:33:13.837Z,19.45
2022-08-27T10:35:55.094Z,19.00
2022-08-27T10:39:13.925Z,19.19
2022-08-27T10:42:15.048Z,19.16
2022-08-27T10:45:31.052Z,19.21
2022-08-27T10:48:56.036Z,18.68
2022-08-27T10:52:03.228Z,18.64
2022-08-27T10:55:27.075Z,18.45
2022-08-27T11:03:58.427Z,18.00
2022-08-27T11:07:00.647Z,17.76
2022-08-27T11:09:57.983Z,17.84
2022-08-27T11:12:55.421Z,18.06
2022-08-27T11:18:59.607Z,18.00
2022-08-27T11:21:39.281Z,18.20
2022-08-27T11:28:52.414Z,18.46
2022-08-27T11:31:44.638Z,18.44
2022-08-27T11:41:16.624Z,18.53
2022-08-27T11:43:50.994Z,18.43
2022-08-27T11:50:20.586Z,17.96
2022-08-27T12:00:20.042Z,18.06
2022-08-27T12:03:29.401Z,18.00
2022-08-27T12:06:07.365Z,17.92
2022-08-27T12:09:26.219Z,18.03
2022-08-27T12:19:29.749Z,18.43
2022-08-27T12:22:11.936Z,18.47
2022-08-27T12:25:20.566Z,18.47
2022-08-27T12:28:35.715Z,18.70
2022-08-27T12:31:10.348Z,18.75
2022-08-27T12:33:55.221Z,18.55
2022-08-27T12:36:57.112Z,18.80
2022-08-27T12:39:37.140Z,18.82
2022-08-27T12:42:23.530Z,18.74
2022-08-27T12:48:12.698Z,18.67
2022-08-27T12:50:53.922Z,18.80
2022-08-27T12:54:05.284Z,18.85
2022-08-27T12:57:37.846Z,18.73
2022-08-27T13:04:32.630Z,18.99
2022-08-27T13:07:37.859Z,19.19
2022-08-27T13:10:19.468Z,19.32
2022-08-27T13:12:48.051Z,19.31
2022-08-27T13:18:14.735Z,19.83
2022-08-27T13:21:13.908Z,19.92
2022-08-27T13:23:55.495Z,20.06
2022-08-27T13:27:03.465Z,20.14
2022-08-27T13:30:22.879Z,20.49
2022-08-27T13:33:04.305Z,20.84
2022-08-27T13:35:49.646Z,20.91
2022-08-27T13:38:19.620Z,20.82
2022-08-27T13:41:27.788Z,20.83
2022-08-27T13:43:59.253Z,20.63
2022-08-27T13:46:32.117Z,20.37
2022-08-27T13:49:02.260Z,20.54
2022-08-27T13:51:34.766Z,20.27
2022-08-27T13:54:12.969Z,20.53
2022-08-27T13:56:53.407Z,20.64
2022-08-27T13:59:20.252Z,20.65
2022-08-27T14:02:10.251Z,20.65
2022-08-27T14:04:44.769Z,20.42
2022-08-27T14:07:13.640Z,20.68
2022-08-27T14:09:54.346Z,20.74
2022-08-27T14:12:32.730Z,20.56
2022-08-27T14:15:19.020Z,20.25
2022-08-27T14:17:46.925Z,20.27
2022-08-27T14:20:17.732Z,20.32
2022-08-27T14:22:50.875Z,20.21
2022-08-27T14:25:19.042Z,20.14
2022-08-27T14:27:57.184Z,20.17
2022-08-27T14:30:29.233Z,20.06
2022-08-27T14:33:00.795Z,20.15
2022-08-27T14:36:32.478Z,20.06
2022-08-27T14:38:59.756Z,20.09
2022-08-27T14:41:48.730Z,20.27
2022-08-27T14:44:17.301Z,20.36
2022-08-27T14:46:44.745Z,20.40
2022-08-27T14:49:15.301Z,20.57
2022-08-27T14:51:47.608Z,20.61
2022-08-27T14:54:14.278Z,20.60
2022-08-27T14:56:41.445Z,20.58
2022-08-27T14:59:08.175Z,20.47
2022-08-27T15:01:38.142Z,20.54
2022-08-27T15:04:05.745Z,20.35
2022-08-27T15:06:32.520Z,20.41
2022-08-27T15:09:00.439Z,20.16
2022-08-27T15:11:32.255Z,20.37
2022-08-27T15:14:14.441Z,20.32
2022-08-27T15:16:50.804Z,20.36
2022-08-27T15:19:17.480Z,20.43
2022-08-27T15:21:45.617Z,20.71
2022-08-27T15:24:26.178Z,20.39
2022-08-27T15:26:57.290Z,20.25
2022-08-27T15:29:24.779Z,20.42
2022-08-27T15:31:51.822Z,20.21
2022-08-27T15:34:18.738Z,20.32
2022-08-27T15:36:45.614Z,20.33
2022-08-27T15:39:12.559Z,20.25
2022-08-27T15:41:56.644Z,20.07
2022-08-27T15:44:27.106Z,20.22
2022-08-27T15:46:53.803Z,20.18
2022-08-27T15:49:20.817Z,20.21
2022-08-27T15:51:47.559Z,20.00
2022-08-27T15:54:14.260Z,19.89
2022-08-27T15:56:43.245Z,20.09
2022-08-27T15:59:09.967Z,20.04
2022-08-27T16:01:37.347Z,20.08
2022-08-27T16:04:04.980Z,20.08
2022-08-27T16:06:32.045Z,20.03
2022-08-27T16:09:01.873Z,20.12
2022-08-27T16:11:28.643Z,20.10
2022-08-27T16:13:55.856Z,20.03
2022-08-27T16:16:29.659Z,20.03
2022-08-27T16:19:00.238Z,20.13
2022-08-27T16:21:27.523Z,20.11
2022-08-27T16:23:54.148Z,19.99
2022-08-27T16:26:20.813Z,20.09
2022-08-27T16:28:49.869Z,20.15
2022-08-27T16:31:16.759Z,20.25
2022-08-27T16:33:43.751Z,20.30
2022-08-27T16:36:10.853Z,20.15
2022-08-27T16:38:37.599Z,20.25
2022-08-27T16:41:08.893Z,20.21
2022-08-27T16:43:35.619Z,20.27
2022-08-27T16:46:06.479Z,20.00
2022-08-27T16:49:01.494Z,19.94
2022-08-27T16:51:33.791Z,20.07
2022-08-27T16:54:08.206Z,20.02
2022-08-27T16:56:37.743Z,20.00
2022-08-27T16:59:04.814Z,19.81
2022-08-27T17:01:33.623Z,19.85
2022-08-27T17:04:16.116Z,19.94
2022-08-27T17:06:57.577Z,19.83
2022-08-27T17:09:34.945Z,19.78
2022-08-27T17:12:04.479Z,19.78
2022-08-27T17:14:37.958Z,19.75
2022-08-27T17:17:06.109Z,19.69
2022-08-27T17:19:34.813Z,19.60
2022-08-27T17:22:03.508Z,19.53
2022-08-27T17:24:30.404Z,19.50
2022-08-27T17:26:57.328Z,19.51
2022-08-27T17:29:24.027Z,19.56
2022-08-27T17:31:50.714Z,19.59
2022-08-27T17:34:23.232Z,19.48
2022-08-27T17:36:55.283Z,19.43
2022-08-27T17:39:22.300Z,19.38
2022-08-27T17:41:54.908Z,19.24
2022-08-27T17:44:33.279Z,19.22
2022-08-27T17:47:03.754Z,19.22
2022-08-27T17:49:33.301Z,19.29
2022-08-27T17:52:03.538Z,19.17
2022-08-27T17:54:32.634Z,19.04
2022-08-27T17:57:00.408Z,18.99
2022-08-27T17:59:27.139Z,18.95
2022-08-27T18:01:57.054Z,18.91
2022-08-27T18:04:26.457Z,18.90
2022-08-27T18:06:55.700Z,19.05
2022-08-27T18:09:24.427Z,18.99
2022-08-27T18:11:51.116Z,19.04
2022-08-27T18:14:18.588Z,19.08
2022-08-27T18:16:56.386Z,19.15
2022-08-27T18:19:23.268Z,18.91
2022-08-27T18:21:50.845Z,19.01
2022-08-27T18:24:19.794Z,18.83
2022-08-27T18:26:47.370Z,18.85
2022-08-27T18:29:15.128Z,18.69
2022-08-27T18:31:42.629Z,18.57
2022-08-27T18:34:09.256Z,18.59
2022-08-27T18:36:38.128Z,18.40
2022-08-27T18:39:04.828Z,18.39
2022-08-27T18:41:31.664Z,18.31
2022-08-27T18:43:58.928Z,18.53
2022-08-27T18:46:26.107Z,18.45
2022-08-27T18:48:55.572Z,18.34
2022-08-27T18:51:22.322Z,18.42
2022-08-27T18:53:49.026Z,18.32
2022-08-27T18:56:18.923Z,18.14
2022-08-27T18:58:46.688Z,18.13
2022-08-27T19:01:19.227Z,18.00
2022-08-27T19:03:48.722Z,17.98
2022-08-27T19:06:17.943Z,17.98
2022-08-27T19:08:48.906Z,17.91
2022-08-27T19:11:15.861Z,17.92
2022-08-27T19:13:42.816Z,17.91
2022-08-27T19:19:47.663Z,17.85
2022-08-27T19:22:30.499Z,17.81
2022-08-27T19:24:58.006Z,17.74
2022-08-27T19:27:25.733Z,17.69
2022-08-27T19:29:54.992Z,17.68
2022-08-27T19:32:22.112Z,17.53
2022-08-27T19:34:48.788Z,17.55
2022-08-27T19:37:27.396Z,17.60
2022-08-27T19:39:54.254Z,17.60
2022-08-27T19:42:21.135Z,17.51
2022-08-27T19:44:48.279Z,17.42
2022-08-27T19:47:16.349Z,17.31
2022-08-27T19:49:49.776Z,17.31
2022-08-27T19:52:16.525Z,17.21
2022-08-27T19:55:03.316Z,17.15
2022-08-27T19:57:30.038Z,16.96
2022-08-27T19:59:59.443Z,16.89
2022-08-27T20:02:26.449Z,16.78
2022-08-27T20:05:16.497Z,16.86
2022-08-27T20:07:40.094Z,16.72
2022-08-27T20:10:08.750Z,16.46
2022-08-27T20:12:45.711Z,16.37
2022-08-27T20:15:13.019Z,16.38
2022-08-27T20:17:41.269Z,16.30
2022-08-27T20:20:09.104Z,16.20
2022-08-27T20:22:35.931Z,16.18
2022-08-27T20:25:02.619Z,16.08
2022-08-27T20:27:29.276Z,15.91
2022-08-27T20:29:56.081Z,15.79
2022-08-27T20:32:25.721Z,15.66
2022-08-27T20:34:56.037Z,15.64
2022-08-27T20:37:22.742Z,15.46
2022-08-27T20:39:50.413Z,15.29
2022-08-27T20:42:19.603Z,15.19
2022-08-27T20:44:47.129Z,15.25
2022-08-27T20:47:13.872Z,15.11
2022-08-27T20:49:41.621Z,15.01
2022-08-27T20:52:11.467Z,14.89
2022-08-27T20:54:41.725Z,14.80
2022-08-27T20:57:11.431Z,14.71
2022-08-27T20:59:57.405Z,14.58
2022-08-27T21:02:26.338Z,14.59
2022-08-27T21:04:53.817Z,14.66
2022-08-27T21:07:21.326Z,14.63
2022-08-27T21:09:55.854Z,14.57
2022-08-27T21:12:29.540Z,14.51
2022-08-27T21:14:57.966Z,14.42
2022-08-27T21:17:26.937Z,14.39
2022-08-27T21:19:56.077Z,14.33
2022-08-27T21:22:23.550Z,14.32
2022-08-27T21:24:50.527Z,14.23
2022-08-27T21:27:18.447Z,14.23
2022-08-27T21:29:45.611Z,14.19
2022-08-27T21:32:15.827Z,14.17
2022-08-27T21:34:42.945Z,14.16
2022-08-27T21:37:11.468Z,14.06
2022-08-27T21:39:49.323Z,13.98
2022-08-27T21:42:16.091Z,13.97
2022-08-27T21:44:43.258Z,13.94
2022-08-27T21:47:15.995Z,13.88
2022-08-27T21:49:42.737Z,13.92
2022-08-27T21:52:09.485Z,13.88
2022-08-27T21:54:39.592Z,13.79
2022-08-27T21:57:06.932Z,13.82
2022-08-27T21:59:39.857Z,13.85
2022-08-27T22:02:23.038Z,13.78
2022-08-27T22:04:54.319Z,13.69
2022-08-27T22:07:20.975Z,13.73
2022-08-27T22:09:52.948Z,13.66
2022-08-27T22:12:19.612Z,13.59
2022-08-27T22:14:46.362Z,13.52
2022-08-27T22:17:15.804Z,13.42
2022-08-27T22:19:42.976Z,13.31
2022-08-27T22:22:09.680Z,13.22
2022-08-27T22:24:36.337Z,13.16
2022-08-27T22:27:03.010Z,13.20
2022-08-27T22:29:30.790Z,13.27
2022-08-27T22:31:57.493Z,13.27
2022-08-27T22:34:27.491Z,13.45
2022-08-27T22:36:56.727Z,13.40
2022-08-27T22:39:24.087Z,13.39
2022-08-27T22:41:52.054Z,13.41
2022-08-27T22:44:26.441Z,13.42
2022-08-27T22:46:53.211Z,13.31
2022-08-27T22:49:21.458Z,13.19
2022-08-27T22:51:49.426Z,13.19
2022-08-27T22:54:19.288Z,13.22
2022-08-27T22:56:45.932Z,13.21
2022-08-27T22:59:12.717Z,13.27
2022-08-27T23:01:39.504Z,13.26
2022-08-27T23:04:07.831Z,13.27
2022-08-27T23:06:34.719Z,13.21
2022-08-27T23:09:01.837Z,13.20
2022-08-27T23:11:31.624Z,13.23
2022-08-27T23:13:59.075Z,13.23
2022-08-27T23:16:25.821Z,13.20
2022-08-27T23:18:52.519Z,13.21
2022-08-27T23:21:19.159Z,13.21
2022-08-27T23:23:46.117Z,13.23
2022-08-27T23:26:31.285Z,13.27
2022-08-27T23:28:58.487Z,13.17
2022-08-27T23:31:29.715Z,13.12
2022-08-27T23:33:57.406Z,13.10
2022-08-27T23:36:24.079Z,12.98
2022-08-27T23:38:51.488Z,12.92
2022-08-27T23:41:18.219Z,12.91
2022-08-27T23:43:47.884Z,12.90
2022-08-27T23:46:14.539Z,12.86
2022-08-27T23:48:41.212Z,12.86
2022-08-27T23:51:09.340Z,12.84
2022-08-27T23:53:37.619Z,12.77
2022-08-27T23:56:05.029Z,12.77
2022-08-27T23:58:32.690Z,12.73
